WARR/SUB METAR and TAF weather

Enter ICAO airport designator
Station Type Date Time Source
WARR METAR 2021/01/16 02:30 UTC NOAA

WARR 160230Z VRB02KT 5000 HZ SCT020 28/24 Q1007 NOSIG


Station Type Date Time Source
WARR Decoded METAR 2021/01/16 02:30 UTC NOAA

Station name not available
Jan 15, 2021 - 09:30 PM EST / 2021.01.16 0230 UTC
Wind: Variable at 2 MPH (2 KT):0
Visibility: 3 mile(s):0
Sky conditions: partly cloudy
Weather: haze
Temperature: 82 F (28 C)
Dew Point: 75 F (24 C)
Relative Humidity: 78%
Pressure (altimeter): 29.74 in. Hg (1007 hPa)
ob: WARR 160230Z VRB02KT 5000 HZ SCT020 28/24 Q1007 NOSIG
cycle: 2

Station Type Date Time Source
WARR TAF 2021/01/15 18:09 UTC NOAA

TAF WARR 151700Z 1518/1618 26004KT 4000 HZ SCT020
BECMG 1600/1602 10007KT 9999 NSW PROB40
TEMPO 1607/1609 4000 TSRA SCT017CB
BECMG 1612/1614 26006KT 4000 HZ

Example: see airport list